To NAV CANADA Home Page Login to a new session Search on AWWS site Feedback and Comments Disclaimer Vers la page française équivalente Tips FAQ What's new on the site To the Forecasts and Observations / NOTAM section To "File a Flight Plan" website Publications and other links Update of the User's profile FIC Telephone Numbers My Weather Data Folder Route Weather Data Regional Weather Data Local Weather Data To the Forecasts and Observations / NOTAM section
Request Generated 10/18/2017 at 04:00:24 UTC . Weather information available at that time is displayed.

METAR/TAF

If you find any discrepancies between the coded METAR/TAF and the plain language METAR/TAF please use the coded METAR/TAF. LWIS bulletins are not decoded in plain language.

VANCOUVER INTL/BC    (show WxCam)

METAR CYVR 180300Z 00000KT 20SM FEW049 BKN140 OVC160 10/07 A3009 RMK SC1AC4AS3 SLP190=
METAR
LOCATION
CYVR - VANCOUVER INTL/BC
DATE - TIME
18 OCTOBER 2017 - 0300 UTC
WIND
CALM
VISIBILITY
20 STAT.  MILES
RUNWAY VISUAL RANGE
WEATHER
CLOUDINESS
FEW CLOUDS (1/8 - 2/8) 4900  FT
BROKEN CLOUDS (5/8 - 7/8) 14000  FT
OVERCAST 16000  FT
TEMP / DEWPOINT
10 C / 7 C
ALTIMETER
30.09 IN HG
RECENT WEATHER
WIND SHEAR

METAR CYVR 180200Z 23003KT 210V280 30SM FEW049 SCT170 BKN180 OVC220 11/06 A3009 RMK SC2AC2AS3CS1 SLP191=
METAR
LOCATION
CYVR - VANCOUVER INTL/BC
DATE - TIME
18 OCTOBER 2017 - 0200 UTC
WIND
230 TRUE @ 3  KNOTS
VARIATION
210 <-> 280  DEG
VISIBILITY
30 STAT.  MILES
RUNWAY VISUAL RANGE
WEATHER
CLOUDINESS
FEW CLOUDS (1/8 - 2/8) 4900  FT
SCATTERED CLOUDS (3/8 - 4/8) 17000  FT
BROKEN CLOUDS (5/8 - 7/8) 18000  FT
OVERCAST 22000  FT
TEMP / DEWPOINT
11 C / 6 C
ALTIMETER
30.09 IN HG
RECENT WEATHER
WIND SHEAR

METAR CYVR 180100Z CCA 19004KT 120V210 30SM FEW045 SCT063 BKN180 OVC250 11/06 A3008 RMK CU2SC2AS1CS3 VIRGA N SLP189=
METAR
LOCATION
CYVR - VANCOUVER INTL/BC
DATE - TIME
18 OCTOBER 2017 - 0100 UTC
WIND
190 TRUE @ 4  KNOTS
VARIATION
120 <-> 210  DEG
VISIBILITY
30 STAT.  MILES
RUNWAY VISUAL RANGE
WEATHER
CLOUDINESS
FEW CLOUDS (1/8 - 2/8) 4500  FT
SCATTERED CLOUDS (3/8 - 4/8) 6300  FT
BROKEN CLOUDS (5/8 - 7/8) 18000  FT
OVERCAST 25000  FT
TEMP / DEWPOINT
11 C / 6 C
ALTIMETER
30.08 IN HG
RECENT WEATHER
WIND SHEAR

METAR CYVR 180100Z 19004KT 120V210 30SM FEW045 SCT063 BKN180 OVC250 11/06 A3008 RMK CU2SC2AS1CS3 SLP189=
METAR
LOCATION
CYVR - VANCOUVER INTL/BC
DATE - TIME
18 OCTOBER 2017 - 0100 UTC
WIND
190 TRUE @ 4  KNOTS
VARIATION
120 <-> 210  DEG
VISIBILITY
30 STAT.  MILES
RUNWAY VISUAL RANGE
WEATHER
CLOUDINESS
FEW CLOUDS (1/8 - 2/8) 4500  FT
SCATTERED CLOUDS (3/8 - 4/8) 6300  FT
BROKEN CLOUDS (5/8 - 7/8) 18000  FT
OVERCAST 25000  FT
TEMP / DEWPOINT
11 C / 6 C
ALTIMETER
30.08 IN HG
RECENT WEATHER
WIND SHEAR

TAF CYVR 180238Z 1803/1906 VRB03KT P6SM FEW050 BKN180 OVC220 FM180500 09008KT P6SM FEW010 SCT050 OVC120 FM181100 08010KT P6SM BKN050 OVC090 TEMPO 1811/1815 P6SM -SHRA OVC050 FM181500 08012KT P6SM -RA FEW008 SCT015 OVC025 TEMPO 1815/1903 2SM -SHRA BR BKN008 OVC015 BECMG 1820/1822 17015G25KT FM190300 14012KT P6SM VCSH SCT020 OVC030 RMK NXT FCST BY 180600Z=
TAF
LOCATION

CYVR - VANCOUVER INTL/BC
VALIDITY [UTC]
18 OCT - 0238 to
19 OCT - 0600
 
TIMES
[UTC]
WIND
[DEGREES TRUE]
VISIBILITY
[STAT. MILES]
WEATHER
CLOUDINESS
[FEET AGL]
 
18 OCT - 0300 to
18 OCT - 0500
VARIABLE @ 3 KNOTS
6+
NIL
5000 FEW
22000 FEW
18000 BROKEN
22000 OVERCAST
 
18 OCT - 0500 to
18 OCT - 1100
90 @ 8 KNOTS
6+
NIL
1000 FEW
12000 FEW
5000 SCATTERED
12000 OVERCAST
 
18 OCT - 1100 to
18 OCT - 1500
80 @ 10 KNOTS
6+
NIL
5000 BROKEN
9000 OVERCAST
TEMPORARY CHANGES
18 OCT - 1100 to
18 OCT - 1500
 
6+
LIGHT RAIN SHOWER
5000 OVERCAST
 
18 OCT - 1500 to
19 OCT - 0300
80 @ 12 KNOTS
6+
LIGHT RAIN
800 FEW
2500 FEW
1500 SCATTERED
2500 OVERCAST
TEMPORARY CHANGES
18 OCT - 1500 to
19 OCT - 0300
 
2
LIGHT RAIN SHOWER
MIST
800 BROKEN
1500 OVERCAST
BECOMING
18 OCT - 2000 to
18 OCT - 2200
170 @ 15 KNOTS
GUSTS 25 KNOTS
 
 
 
 
19 OCT - 0300 to
19 OCT - 0600
140 @ 12 KNOTS
6+
SHOWER IN THE VICINITY
2000 SCATTERED
3000 OVERCAST
REMARKS
THE NEXT FORECAST WILL BE ISSUED BY 0600 UTC ON DAY 18


Your time UTC time
Weather data provided by Environment Canada and NAV CANADA